EW0532 Weather Reports


time (UTC)temp
F
wind
direction
speed
knots
gust
knots
rain 1hr
in
rain 24hr
in
rain mn
in
humidity
%
barometer
mb
20260510202003 70 203 0.9 11.3 0.00 0.22 0.00 53 1013.1
20260510201504 70 167 1.7 11.3 0.00 0.22 0.00 53 1013.1
20260510201003 70 175 1.7 11.3 0.00 0.22 0.00 53 1013.1
20260510200503 71 322 0.0 11.3 0.00 0.23 0.00 53 1013.1
20260510200023 71 72 0.0 7.8 0.00 0.23 0.00 55 1013.1
20260510195505 71 347 2.6 7.8 0.00 0.23 0.00 53 1013.2
20260510195003 71 253 0.9 9.6 0.00 0.24 0.00 54 1013.2
20260510194509 72 182 0.0 9.6 0.00 0.24 0.00 56 1013.3
20260510194006 72 338 3.5 9.6 0.00 0.24 0.00 54 1013.3
20260510193508 73 332 1.7 9.6 0.00 0.24 0.00 56 1013.3
20260510193016 73 299 0.9 5.2 0.00 0.24 0.00 55 1013.2
20260510192506 73 310 0.9 3.5 0.00 0.24 0.00 55 1013.1
20260510192003 73 188 0.0 7.0 0.00 0.24 0.00 54 1013.1
20260510191505 72 198 1.7 7.0 0.00 0.24 0.00 52 1013.2
20260510191003 73 341 0.9 5.2 0.00 0.24 0.00 56 1013.3
20260510190503 72 327 0.9 8.7 0.00 0.24 0.00 56 1013.2
20260510190015 72 262 0.9 10.4 0.00 0.24 0.00 54 1013.2
20260510185504 72 336 2.6 10.4 0.00 0.24 0.00 56 1013.3
20260510185006 73 332 7.0 10.4 0.00 0.24 0.00 52 1013.3
20260510184511 73 314 1.7 6.1 0.00 0.24 0.00 54 1013.3
20260510184003 73 322 0.0 6.1 0.00 0.24 0.00 55 1013.4
20260510183504 72 206 1.7 13.0 0.00 0.24 0.00 56 1013.3
20260510183032 72 171 3.5 13.0 0.00 0.24 0.00 54 1013.3
20260510182507 73 219 2.6 7.0 0.00 0.25 0.00 58 1013.4
20260510182003 73 183 0.0 7.0 0.00 0.25 0.00 58 1013.2
20260510181523 73 306 0.0 5.2 0.00 0.25 0.00 59 1013.3
20260510181010 73 349 1.7 7.8 0.00 0.25 0.00 60 1013.4
20260510180503 73 192 1.7 7.8 0.00 0.25 0.00 60 1013.2
20260510180006 73 193 1.7 5.2 0.00 0.27 0.00 59 1013.2
20260510175504 73 189 1.7 8.7 0.00 0.28 0.00 58 1013.2
20260510175003 72 325 3.5 8.7 0.00 0.28 0.00 58 1013.1
20260510174507 72 82 1.7 6.1 0.00 0.28 0.00 60 1013.2
20260510174006 72 115 0.9 7.0 0.00 0.28 0.00 61 1013.1
20260510173506 72 184 1.7 7.0 0.00 0.28 0.00 62 1013.2
20260510173013 71 211 1.7 5.2 0.00 0.28 0.00 65 1013.2
20260510172506 71 185 1.7 5.2 0.00 0.28 0.00 64 1013.3
20260510172010 70 198 0.9 5.2 0.00 0.28 0.00 69 1013.3
20260510171518 70 183 1.7 7.0 0.00 0.28 0.00 66 1013.2
20260510171003 70 322 2.6 7.0 0.00 0.28 0.00 66 1013.2
20260510170507 69 187 0.9 5.2 0.00 0.28 0.00 67 1013.3
20260510170016 69 186 1.7 5.2 0.00 0.28 0.00 69 1013.4
20260510165507 69 249 0.0 5.2 0.00 0.28 0.00 71 1013.5
20260510165003 68 156 0.9 7.0 0.00 0.28 0.00 72 1013.5
20260510164513 68 132 2.6 7.0 0.00 0.28 0.00 68 1013.6
20260510164006 68 217 1.7 7.0 0.00 0.28 0.00 70 1013.6
20260510163504 68 112 0.9 7.0 0.00 0.28 0.00 72 1013.6
20260510163010 68 159 2.6 7.0 0.00 0.28 0.00 71 1013.6
20260510162506 67 172 0.0 5.2 0.00 0.28 0.00 72 1013.7
20260510162009 67 185 2.6 5.2 0.00 0.28 0.00 71 1013.7
20260510161512 67 159 1.7 7.8 0.00 0.28 0.00 72 1013.6
20260510161008 67 180 1.7 7.8 0.00 0.28 0.00 72 1013.7
20260510160507 67 188 0.9 4.3 0.00 0.28 0.00 75 1013.6
20260510160011 66 215 0.0 6.1 0.00 0.28 0.00 75 1013.6
20260510155507 66 334 0.9 6.1 0.00 0.28 0.00 73 1013.5
20260510155007 65 183 0.9 6.1 0.00 0.28 0.00 78 1013.4
20260510154520 65 146 2.6 6.1 0.00 0.28 0.00 76 1013.6
20260510154004 64 146 1.7 7.0 0.00 0.28 0.00 78 1013.6
20260510153503 64 167 1.7 7.0 0.00 0.28 0.00 77 1013.7
20260510153010 64 164 2.6 7.0 0.00 0.28 0.00 77 1013.8
20260510152504 63 130 0.9 6.1 0.00 0.28 0.00 79 1013.7
20260510152008 63 153 0.9 6.1 0.00 0.28 0.00 79 1013.7
20260510151514 63 132 0.9 6.1 0.00 0.28 0.00 80 1013.6
20260510151006 62 143 2.6 6.1 0.00 0.28 0.00 81 1013.6
20260510150506 62 148 0.9 4.3 0.00 0.28 0.00 82 1013.7
20260510150016 61 86 0.9 5.2 0.00 0.28 0.00 82 1013.8
20260510145507 61 171 0.9 5.2 0.00 0.28 0.00 83 1013.9
20260510145012 60 159 0.9 6.1 0.00 0.28 0.00 83 1014.0
20260510144525 60 157 2.6 6.1 0.00 0.28 0.00 84 1014.0
20260510144007 60 144 0.9 7.0 0.00 0.28 0.00 84 1013.8
20260510143516 60 153 0.0 7.0 0.00 0.28 0.00 85 1013.7
20260510143031 60 146 2.6 7.0 0.00 0.28 0.00 84 1013.9
20260510142506 59 142 0.0 4.3 0.00 0.28 0.00 87 1013.8
20260510142004 59 143 0.9 4.3 0.00 0.28 0.00 86 1013.7
20260510141514 59 148 0.9 3.5 0.00 0.28 0.00 85 1013.9
20260510141006 59 169 0.0 4.3 0.00 0.28 0.00 87 1013.8
20260510140509 58 171 0.9 6.1 0.00 0.28 0.00 87 1013.7
20260510140019 58 155 0.9 8.7 0.00 0.28 0.00 86 1013.7
20260510135506 58 138 1.7 8.7 0.00 0.28 0.00 86 1013.7
20260510135006 58 155 0.9 5.2 0.00 0.28 0.00 87 1013.7
20260510134522 58 139 0.9 5.2 0.00 0.28 0.00 88 1013.7
20260510134008 57 186 0.0 2.6 0.00 0.28 0.00 89 1013.7
20260510133506 57 186 0.0 4.3 0.00 0.28 0.00 90 1013.7
20260510133034 56 186 0.9 4.3 0.00 0.28 0.00 91 1013.7
20260510132514 56 209 0.9 3.5 0.00 0.28 0.00 93 1013.7
20260510132013 55 159 0.0 3.5 0.00 0.28 0.00 92 1013.6
20260510131515 55 159 0.0 5.2 0.00 0.28 0.00 92 1013.6
20260510131009 55 159 2.6 5.2 0.00 0.28 0.00 92 1013.5
20260510130507 55 159 0.9 4.3 0.00 0.28 0.00 93 1013.4
20260510130014 55 150 0.0 4.3 0.00 0.28 0.00 93 1013.4
20260510125503 55 186 0.9 2.6 0.00 0.28 0.00 94 1013.4
20260510125004 54 186 0.0 1.7 0.00 0.28 0.00 94 1013.3
20260510124506 54 186 0.0 0.9 0.00 0.28 0.00 94 1013.2
20260510124003 54 186 0.0 0.0 0.00 0.28 0.00 94 1013.3
20260510123503 54 186 0.0 0.9 0.00 0.28 0.00 94 1013.4
20260510123004 54 186 0.0 0.9 0.00 0.28 0.00 94 1013.3
20260510122503 54 186 0.0 0.9 0.00 0.28 0.00 94 1013.2
20260510122002 53 186 0.0 0.0 0.00 0.28 0.00 95 1013.1
20260510121506 53 186 0.0 0.0 0.00 0.28 0.00 94 1013.1
20260510121006 53 186 0.0 0.0 0.00 0.28 0.00 94 1013.1
20260510120504 53 186 0.0 0.0 0.00 0.28 0.00 94 1013.1
20260510120004 53 186 0.0 0.0 0.00 0.28 0.00 94 1012.9
20260510115503 53 186 0.0 0.0 0.00 0.28 0.00 94 1012.8
20260510115005 53 186 0.0 0.0 0.00 0.28 0.00 95 1012.7
20260510114504 53 186 0.0 0.0 0.00 0.28 0.00 95 1012.7
20260510114004 53 186 0.0 0.9 0.00 0.28 0.00 95 1012.8
20260510113503 53 186 0.0 1.7 0.00 0.28 0.00 94 1012.8
20260510113004 53 186 0.0 1.7 0.00 0.28 0.00 94 1012.8
20260510112503 53 186 0.0 0.0 0.00 0.28 0.00 94 1012.9
20260510112004 52 186 0.0 0.0 0.00 0.28 0.00 95 1012.7
20260510111507 52 186 0.0 0.9 0.00 0.28 0.00 95 1012.4
20260510111003 52 186 0.0 0.9 0.00 0.28 0.00 95 1012.3
20260510110505 52 186 0.0 0.9 0.00 0.28 0.00 95 1012.4
20260510110008 52 186 0.0 0.0 0.00 0.28 0.00 94 1012.4
20260510105504 52 186 0.0 0.0 0.00 0.28 0.00 94 1012.3
20260510105003 52 186 0.0 0.0 0.00 0.28 0.00 94 1012.1
20260510104508 52 186 0.0 0.0 0.00 0.28 0.00 94 1012.1
20260510104005 52 186 0.0 0.9 0.00 0.28 0.00 94 1012.1
20260510103508 52 186 0.0 1.7 0.00 0.28 0.00 94 1012.1
20260510103005 52 186 0.0 1.7 0.00 0.28 0.00 94 1012.2
20260510102507 52 186 0.0 0.0 0.00 0.28 0.00 94 1012.3
20260510102002 52 186 0.0 0.9 0.00 0.28 0.00 94 1012.2
20260510101503 52 186 0.0 0.9 0.00 0.28 0.00 94 1012.2
20260510101003 52 186 0.0 0.0 0.00 0.28 0.00 94 1012.2
20260510100503 52 186 0.0 0.9 0.00 0.28 0.00 94 1012.3
20260510100009 52 186 0.0 2.6 0.00 0.28 0.00 94 1012.3
20260510095503 52 186 0.0 2.6 0.00 0.28 0.00 94 1012.2
20260510095005 52 272 0.0 0.9 0.00 0.28 0.00 94 1012.4
20260510094512 52 272 0.0 0.9 0.00 0.28 0.00 94 1012.3
20260510094006 52 273 0.0 0.9 0.00 0.28 0.00 94 1012.1
20260510093503 52 273 0.0 1.7 0.00 0.28 0.00 94 1012.1
20260510093016 52 273 0.0 1.7 0.00 0.28 0.00 94 1012.2
20260510092506 52 273 0.0 1.7 0.00 0.28 0.00 94 1012.3
20260510092002 52 276 0.0 1.7 0.00 0.28 0.00 94 1012.3
20260510091512 52 290 0.0 1.7 0.00 0.28 0.00 94 1012.4
20260510091006 52 290 0.0 0.9 0.00 0.28 0.00 94 1012.4
20260510090504 52 291 0.0 0.0 0.00 0.28 0.00 94 1012.5
20260510090006 52 291 0.0 0.0 0.00 0.28 0.00 94 1012.5
20260510085503 52 291 0.0 0.0 0.00 0.28 0.00 94 1012.5
20260510085003 52 291 0.0 0.0 0.00 0.28 0.00 94 1012.5
20260510084503 52 291 0.0 0.0 0.00 0.28 0.00 94 1012.5
20260510084004 52 291 0.0 0.0 0.00 0.28 0.00 94 1012.5
20260510083504 52 291 0.0 0.0 0.00 0.28 0.00 94 1012.6
20260510083017 52 291 0.0 0.0 0.00 0.28 0.00 94 1012.5
20260510082507 52 291 0.0 0.9 0.00 0.28 0.00 94 1012.5
20260510082007 52 291 0.0 1.7 0.00 0.28 0.00 94 1012.5
20260510081520 52 291 0.0 2.6 0.00 0.28 0.00 94 1012.4
20260510081009 52 291 0.0 2.6 0.00 0.28 0.00 94 1012.5
20260510080506 52 289 0.0 1.7 0.00 0.28 0.00 94 1012.4
20260510080018 52 291 0.0 3.5 0.00 0.28 0.00 94 1012.3
20260510075506 52 291 0.0 3.5 0.00 0.28 0.00 94 1012.3
20260510075003 52 159 0.9 3.5 0.00 0.28 0.00 94 1012.0
20260510074507 52 156 0.0 0.0 0.00 0.28 0.00 94 1011.6
20260510074005 53 156 0.0 0.0 0.00 0.28 0.00 94 1011.6
20260510073503 52 156 0.0 0.0 0.00 0.28 0.00 94 1011.6
20260510073013 53 156 0.0 0.0 0.00 0.28 0.00 94 1011.6
20260510072507 53 156 0.0 0.0 0.00 0.28 0.00 94 1011.6
20260510072007 53 156 0.0 0.0 0.00 0.28 0.00 94 1011.6
20260510071507 53 156 0.0 0.0 0.00 0.28 0.00 94 1011.6
20260510071006 53 156 0.0 0.0 0.00 0.28 0.00 94 1011.7
20260510070508 53 156 0.0 0.0 0.00 0.28 0.00 94 1011.8
20260510070023 53 156 0.0 0.0 0.00 0.28 0.00 94 1011.8
20260510065503 53 156 0.0 0.0 0.00 0.28 0.00 94 1011.8
20260510065011 53 156 0.0 0.0 0.00 0.28 0.00 94 1011.8
20260510064523 53 156 0.0 0.0 0.00 0.28 0.00 94 1011.8
20260510064004 53 156 0.0 0.0 0.00 0.28 0.00 94 1011.8
20260510063507 53 156 0.0 0.0 0.00 0.28 0.00 94 1011.9
20260510063010 53 156 0.0 0.0 0.00 0.28 0.00 94 1011.9
20260510062507 53 156 0.0 0.9 0.00 0.28 0.00 94 1011.9
20260510062007 53 156 0.0 1.7 0.00 0.28 0.00 94 1011.8
20260510061514 53 156 0.0 1.7 0.00 0.28 0.00 94 1011.8
20260510061007 53 156 0.0 0.9 0.00 0.28 0.00 94 1011.7
20260510060510 53 156 0.0 0.0 0.00 0.28 0.00 94 1011.7
20260510060019 53 156 0.0 0.0 0.00 0.28 0.00 94 1011.7
20260510055508 53 156 0.0 0.0 0.00 0.28 0.00 94 1011.7
20260510055008 53 156 0.0 0.0 0.00 0.28 0.00 94 1011.6
20260510054514 53 156 0.0 0.9 0.00 0.28 0.00 94 1011.6
20260510054009 53 156 0.0 0.9 0.00 0.28 0.00 94 1011.6
20260510053514 53 156 0.0 0.0 0.00 0.28 0.00 94 1011.6
20260510053029 53 156 0.0 0.0 0.00 0.28 0.00 94 1011.6
20260510052506 53 156 0.0 0.9 0.00 0.28 0.00 94 1011.7
20260510052014 53 156 0.0 0.9 0.00 0.28 0.00 94 1011.7
20260510051512 53 156 0.0 0.0 0.00 0.28 0.00 94 1011.7
20260510051006 53 156 0.0 0.0 0.00 0.28 0.00 94 1011.8
20260510050508 53 156 0.0 0.0 0.00 0.28 0.00 94 1011.8
20260510050018 53 156 0.0 0.0 0.00 0.28 0.00 94 1011.9
20260510045509 53 156 0.0 0.0 0.00 0.28 0.00 94 1011.8
20260510045005 53 156 0.0 0.0 0.00 0.28 0.00 94 1011.9
20260510044520 53 156 0.0 0.0 0.00 0.28 0.00 94 1011.9
20260510044006 53 156 0.0 0.0 0.00 0.28 0.00 94 1011.8
20260510043510 53 156 0.0 0.0 0.00 0.28 0.00 94 1011.9
20260510043020 53 156 0.0 0.0 0.00 0.28 0.00 94 1011.9
20260510042508 53 156 0.0 0.0 0.00 0.28 0.00 94 1011.8
20260510042012 53 156 0.0 0.0 0.00 0.28 0.00 94 1011.9
20260510041515 53 156 0.0 0.0 0.00 0.28 0.00 94 1011.8
20260510041006 53 156 0.0 0.0 0.00 0.28 0.00 94 1011.8
20260510040509 53 156 0.0 0.0 0.00 0.28 0.00 94 1011.8
20260510040016 53 156 0.0 0.0 0.00 0.28 0.00 94 1011.8
20260510035505 53 156 0.0 0.0 0.00 0.28 0.28 94 1011.8
20260510035002 53 156 0.0 0.0 0.00 0.28 0.28 94 1011.7
20260510034503 52 156 0.0 0.0 0.00 0.28 0.28 94 1011.7
20260510034003 52 156 0.0 0.0 0.00 0.28 0.28 94 1011.7
20260510033502 52 156 0.0 0.0 0.00 0.28 0.28 94 1011.7
20260510033004 52 156 0.0 0.0 0.00 0.28 0.28 94 1011.7
20260510032502 52 156 0.0 0.0 0.00 0.28 0.28 94 1011.5
20260510032006 52 156 0.0 0.0 0.00 0.28 0.28 94 1011.4
20260510031509 51 156 0.0 0.0 0.00 0.28 0.28 94 1011.5
20260510031003 51 156 0.0 0.0 0.00 0.28 0.28 94 1011.5
20260510030509 51 156 0.0 0.0 0.00 0.28 0.28 94 1011.6
20260510030009 51 156 0.0 0.9 0.01 0.28 0.28 94 1011.5
20260510025502 51 156 0.0 0.9 0.01 0.28 0.28 94 1011.6
20260510025006 51 156 0.0 0.0 0.01 0.28 0.28 93 1011.6
20260510024518 51 156 0.0 0.0 0.01 0.28 0.28 93 1011.7
20260510024006 51 156 0.0 0.0 0.01 0.28 0.28 93 1011.7
20260510023505 51 156 0.0 0.0 0.01 0.28 0.28 93 1011.7
20260510023003 51 156 0.0 0.0 0.01 0.28 0.28 93 1011.8
20260510022503 51 156 0.0 0.0 0.01 0.28 0.28 93 1011.8
20260510022002 51 156 0.0 0.0 0.01 0.28 0.28 93 1011.7
20260510021511 51 156 0.0 0.9 0.01 0.28 0.28 93 1011.8
20260510021005 51 156 0.0 0.9 0.01 0.28 0.28 93 1011.7
20260510020504 51 156 0.0 0.0 0.01 0.28 0.28 93 1011.7
20260510020008 51 156 0.0 0.0 0.00 0.27 0.27 93 1011.6
20260510015507 51 156 0.0 0.0 0.00 0.27 0.27 93 1011.7
20260510015010 51 156 0.0 0.0 0.00 0.27 0.27 92 1011.7
20260510014507 51 156 0.0 0.0 0.00 0.27 0.27 93 1011.6
20260510014004 51 156 0.0 0.0 0.00 0.27 0.27 93 1011.6
20260510013507 51 156 0.0 0.0 0.00 0.27 0.27 93 1011.7
20260510013004 51 156 0.0 0.0 0.00 0.27 0.27 93 1011.7
20260510012503 51 156 0.0 0.0 0.00 0.27 0.27 92 1011.6
20260510012010 51 156 0.0 0.0 0.00 0.27 0.27 93 1011.6
20260510011505 51 156 0.0 0.0 0.00 0.27 0.27 92 1011.5
20260510011004 52 156 0.0 0.0 0.00 0.27 0.27 92 1011.3
20260510010504 52 156 0.0 0.0 0.00 0.27 0.27 92 1011.1
20260510010007 52 156 0.0 0.0 0.00 0.27 0.27 92 1011.0
20260510005506 52 156 0.0 0.0 0.00 0.27 0.27 92 1011.1
20260510005004 52 156 0.0 0.0 0.00 0.27 0.27 92 1011.1
20260510004512 52 156 0.0 0.0 0.00 0.27 0.27 92 1011.0
20260510004009 52 156 0.0 0.0 0.00 0.27 0.27 92 1010.9
20260510003504 52 156 0.0 0.0 0.00 0.27 0.27 91 1010.9
20260510003012 53 156 0.0 0.0 0.00 0.27 0.27 92 1011.0
20260510002508 53 156 0.0 0.0 0.00 0.27 0.27 92 1011.0
20260510002007 53 156 0.0 0.0 0.00 0.27 0.27 92 1011.1
20260510001510 53 156 0.0 0.0 0.00 0.27 0.27 92 1011.1
20260510001007 53 156 0.0 0.0 0.00 0.27 0.27 91 1011.0
20260510000507 53 156 0.0 0.0 0.00 0.27 0.27 91 1011.0
20260510000010 54 156 0.0 0.0 0.00 0.27 0.27 91 1010.9
20260509235503 54 156 0.0 0.0 0.00 0.27 0.27 91 1010.8
20260509235006 54 156 0.0 0.0 0.00 0.27 0.27 91 1010.8
20260509234529 54 156 0.0 0.0 0.00 0.27 0.27 91 1010.8
20260509234003 54 156 0.0 0.0 0.00 0.27 0.27 91 1010.7
20260509233506 54 156 0.0 0.0 0.00 0.27 0.27 92 1010.7
20260509233020 55 156 0.0 0.9 0.00 0.27 0.27 92 1010.8
20260509232503 55 156 0.0 0.9 0.00 0.27 0.27 92 1010.7
20260509232007 55 156 0.0 2.6 0.00 0.27 0.27 92 1010.8
20260509231519 55 156 0.0 4.3 0.00 0.27 0.27 92 1010.6
20260509231008 55 156 0.0 4.3 0.00 0.27 0.27 92 1010.4
20260509230504 55 161 0.9 4.3 0.00 0.27 0.27 92 1010.5
20260509230018 55 145 0.9 4.3 0.00 0.27 0.27 92 1010.7
20260509225511 55 153 0.0 4.3 0.00 0.27 0.27 92 1011.1
20260509225019 55 153 0.9 4.3 0.00 0.27 0.27 92 1011.2
20260509224513 55 153 0.0 1.7 0.00 0.27 0.27 92 1011.2
20260509224003 55 153 0.0 2.6 0.01 0.27 0.27 92 1011.2
20260509223503 55 153 0.0 4.3 0.03 0.27 0.27 92 1011.2
20260509223009 55 153 0.0 4.3 0.05 0.27 0.27 92 1011.1
20260509222506 55 150 0.0 4.3 0.06 0.27 0.27 92 1011.1
20260509222006 55 150 0.0 4.3 0.08 0.27 0.27 92 1011.0
20260509221521 55 154 0.0 5.2 0.10 0.27 0.27 92 1011.0
20260509221007 55 148 0.9 5.2 0.12 0.27 0.27 92 1011.1
20260509220509 55 155 0.9 3.5 0.13 0.27 0.27 92 1011.0
20260509220023 55 146 0.0 3.5 0.14 0.27 0.27 91 1011.2
20260509215503 55 343 0.0 2.6 0.15 0.27 0.27 91 1011.5
20260509215008 55 329 0.0 2.6 0.19 0.27 0.27 91 1011.5
20260509214522 55 329 0.0 0.9 0.19 0.27 0.27 91 1011.3
20260509214012 55 329 0.0 0.0 0.19 0.26 0.26 91 1011.3
20260509213504 55 329 0.0 0.9 0.17 0.24 0.24 91 1011.5
20260509213019 55 329 0.0 0.9 0.15 0.22 0.22 91 1011.5
20260509212507 55 329 0.0 0.0 0.14 0.21 0.21 91 1011.4
20260509212006 55 329 0.0 0.9 0.13 0.19 0.19 90 1011.4
20260509211514 55 329 0.0 0.9 0.11 0.17 0.17 90 1011.4
20260509210506 55 329 0.0 0.9 0.09 0.14 0.14 90 1011.4
20260509210014 55 329 0.0 0.9 0.08 0.13 0.13 89 1011.1
20260509205507 55 329 0.0 0.0 0.07 0.12 0.12 89 1011.4
20260509205009 55 329 0.0 0.0 0.04 0.08 0.08 89 1011.4
20260509204525 55 329 0.0 0.0 0.04 0.08 0.08 89 1011.4
20260509204006 55 329 0.0 0.0 0.03 0.07 0.07 88 1011.5
20260509203513 56 329 0.0 0.0 0.03 0.07 0.07 88 1011.6
20260509203027 55 329 0.0 0.0 0.03 0.07 0.07 88 1011.4
20260509202503 55 329 0.0 1.7 0.03 0.07 0.07 86 1011.5